Time;durP1;ratioP1;P1;durP2;ratioP2;P2;SDS_P1;SDS_P2;PMS_P1;PMS_P2;Temp;Humidity;BMP_temperature;BMP_pressure;BME280_temperature;BME280_humidity;BME280_pressure;Samples;Min_cycle;Max_cycle;Signal;HPM_P1;HPM_P2
2022/04/20 00:00:34;;;;;;;16.92;13.27;;;256.00;2022.40;;;;;;4843173;29;20033;-68
2022/04/20 00:03:01;;;;;;;19.92;14.93;;;256.00;1971.20;;;;;;4843443;29;20045;-68
2022/04/20 00:05:26;;;;;;;18.17;14.38;;;256.00;2022.40;;;;;;4842867;29;20377;-69
2022/04/20 00:07:52;;;;;;;20.55;14.48;;;256.00;2022.40;;;;;;4843215;29;20026;-68
2022/04/20 00:10:18;;;;;;;23.30;14.40;;;256.00;1971.20;;;;;;4843141;29;20083;-68
2022/04/20 00:12:44;;;;;;;20.42;14.43;;;256.00;1996.80;;;;;;4843152;29;20037;-69
2022/04/20 00:15:10;;;;;;;19.48;15.30;;;256.00;2022.40;;;;;;4843632;29;20085;-68
2022/04/20 00:17:36;;;;;;;17.55;13.85;;;256.00;1996.80;;;;;;4842989;29;20469;-68
2022/04/20 00:20:02;;;;;;;20.35;14.68;;;256.00;1996.80;;;;;;4842732;29;20037;-68
2022/04/20 00:22:28;;;;;;;21.05;16.02;;;256.00;2022.40;;;;;;4843072;29;20034;-69
2022/04/20 00:24:53;;;;;;;17.27;14.20;;;256.00;2022.40;;;;;;4843421;29;20044;-69
2022/04/20 00:27:19;;;;;;;23.33;17.42;;;256.00;1996.80;;;;;;4843100;29;20034;-69
2022/04/20 00:29:45;;;;;;;23.58;17.40;;;256.00;2022.40;;;;;;4843000;29;20384;-68
2022/04/20 00:32:10;;;;;;;22.77;16.00;;;256.00;2048.00;;;;;;4825438;29;20046;-68
2022/04/20 00:34:36;;;;;;;20.08;16.17;;;256.00;1996.80;;;;;;4842800;29;20030;-69
2022/04/20 00:37:02;;;;;;;18.42;14.48;;;256.00;1996.80;;;;;;4842714;29;20038;-69
2022/04/20 00:39:28;;;;;;;18.55;13.77;;;256.00;2022.40;;;;;;4842780;29;20053;-69
2022/04/20 00:41:54;;;;;;;18.00;12.90;;;231.30;1996.80;;;;;;4842894;29;20037;-69
2022/04/20 00:44:21;;;;;;;20.80;14.65;;;231.30;1996.80;;;;;;4842364;29;20045;-69
2022/04/20 00:46:47;;;;;;;20.50;14.57;;;231.30;2022.40;;;;;;4842062;29;20446;-69
2022/04/20 00:49:14;;;;;;;16.27;13.27;;;231.30;2022.40;;;;;;4842914;29;20041;-69
2022/04/20 00:51:53;;;;;;;18.75;14.65;;;231.20;1996.80;;;;;;4842706;29;20090;-69
2022/04/20 00:54:19;;;;;;;22.77;15.13;;;231.20;2022.40;;;;;;4842690;29;20030;-69
2022/04/20 00:56:45;;;;;;;21.25;15.40;;;231.20;2048.00;;;;;;4842798;29;20038;-69
2022/04/20 00:59:12;;;;;;;19.85;15.20;;;231.20;1996.80;;;;;;4842884;29;20026;-69
2022/04/20 01:01:38;;;;;;;19.83;15.25;;;231.20;2022.40;;;;;;4842618;29;20037;-69
2022/04/20 01:04:04;;;;;;;21.85;15.23;;;231.20;2048.00;;;;;;4842674;29;20034;-69
2022/04/20 01:06:30;;;;;;;19.13;15.77;;;231.20;1996.80;;;;;;4842542;29;20030;-69
2022/04/20 01:08:56;;;;;;;20.92;15.32;;;231.20;2022.40;;;;;;4842790;29;20057;-69
2022/04/20 01:11:22;;;;;;;18.63;14.25;;;231.20;2048.00;;;;;;4842524;29;20045;-69
2022/04/20 01:13:48;;;;;;;22.95;14.93;;;231.10;1996.80;;;;;;4842445;29;20034;-69
2022/04/20 01:16:14;;;;;;;20.75;16.10;;;231.10;2022.40;;;;;;4842442;29;20045;-68
2022/04/20 01:18:46;;;;;;;18.27;14.50;;;231.10;2048.00;;;;;;4846126;29;20113;-68
2022/04/20 01:21:12;;;;;;;25.25;16.20;;;231.10;2022.40;;;;;;4846082;29;20090;-69
2022/04/20 01:23:38;;;;;;;22.42;16.33;;;231.10;2022.40;;;;;;4845997;29;20022;-69
2022/04/20 01:26:08;;;;;;;22.05;14.88;;;231.10;2073.60;;;;;;4845984;29;20033;-68
2022/04/20 01:28:38;;;;;;;19.70;15.20;;;231.10;2022.40;;;;;;4845931;29;20022;-69
2022/04/20 01:31:04;;;;;;;18.10;15.00;;;231.10;2048.00;;;;;;4845637;29;20054;-69
2022/04/20 01:33:31;;;;;;;19.10;15.02;;;231.10;2048.00;;;;;;4845485;29;20034;-69
2022/04/20 01:35:57;;;;;;;20.00;14.98;;;231.10;2022.40;;;;;;4845717;29;20362;-69
2022/04/20 01:38:22;;;;;;;17.73;14.85;;;231.10;2048.00;;;;;;4828938;29;20029;-69
2022/04/20 01:40:48;;;;;;;17.80;14.43;;;231.10;2073.60;;;;;;4845559;29;20026;-68
2022/04/20 01:43:14;;;;;;;18.48;14.75;;;231.10;2048.00;;;;;;4828478;29;20053;-69
2022/04/20 01:45:40;;;;;;;18.17;15.48;;;231.10;2048.00;;;;;;4845734;29;20041;-69
2022/04/20 01:48:08;;;;;;;28.95;15.77;;;231.10;2073.60;;;;;;4845750;29;20026;-69
2022/04/20 01:51:46;;;;;;;19.50;14.98;;;231.10;2048.00;;;;;;4844910;29;20069;-69
2022/04/20 01:53:20;;;;;;;22.92;16.95;;;231.10;2022.40;;;;;;4845378;29;20120;-69
2022/04/20 01:55:46;;;;;;;18.50;15.70;;;231.20;2048.00;;;;;;4845464;29;20120;-69
2022/04/20 01:58:11;;;;;;;19.17;15.27;;;231.20;2073.60;;;;;;4845489;29;20034;-68
2022/04/20 02:00:37;;;;;;;20.27;15.35;;;231.10;2048.00;;;;;;4828423;29;20464;-69
2022/04/20 02:03:03;;;;;;;20.83;15.68;;;231.10;2073.60;;;;;;4845456;29;20041;-69
2022/04/20 02:05:28;;;;;;;18.67;14.52;;;231.10;2099.20;;;;;;4845389;29;20030;-68
2022/04/20 02:07:55;;;;;;;18.23;15.35;;;231.10;2048.00;;;;;;4844923;29;20025;-69
2022/04/20 02:10:22;;;;;;;18.65;15.65;;;231.10;2073.60;;;;;;4845262;29;20022;-69
2022/04/20 02:12:47;;;;;;;19.33;16.20;;;231.20;2099.20;;;;;;4845252;29;20063;-68
2022/04/20 02:15:13;;;;;;;20.05;16.00;;;231.20;2048.00;;;;;;4844996;29;20373;-69
2022/04/20 02:17:39;;;;;;;21.35;16.02;;;231.20;2048.00;;;;;;4845098;29;20042;-69
2022/04/20 02:20:05;;;;;;;20.50;16.00;;;231.20;2073.60;;;;;;4828398;29;20026;-69
2022/04/20 02:22:31;;;;;;;19.35;16.55;;;231.20;2048.00;;;;;;4844990;29;20362;-69
2022/04/20 02:24:59;;;;;;;22.10;16.95;;;231.10;2048.00;;;;;;4844722;29;20037;-68
2022/04/20 02:27:26;;;;;;;23.13;16.48;;;231.20;2073.60;;;;;;4844540;29;20022;-69
2022/04/20 02:29:52;;;;;;;19.88;15.73;;;231.20;2099.20;;;;;;4844723;29;20029;-69
2022/04/20 02:32:18;;;;;;;20.92;16.63;;;231.20;2048.00;;;;;;4844675;29;20053;-69
2022/04/20 02:34:44;;;;;;;25.85;16.05;;;231.20;2048.00;;;;;;4844637;29;20030;-68
2022/04/20 02:37:10;;;;;;;17.85;14.80;;;231.20;2073.60;;;;;;4844483;29;20419;-70
2022/04/20 02:39:37;;;;;;;20.92;15.90;;;231.20;2022.40;;;;;;4844747;29;20106;-69
2022/04/20 02:42:07;;;;;;;19.58;15.68;;;231.20;2048.00;;;;;;4844630;29;20029;-68
2022/04/20 02:44:33;;;;;;;20.00;15.68;;;231.20;2099.20;;;;;;4844542;29;20473;-68
2022/04/20 02:46:59;;;;;;;19.25;15.05;;;231.20;2022.40;;;;;;4844372;29;20066;-69
2022/04/20 02:49:25;;;;;;;19.85;15.65;;;231.20;2048.00;;;;;;4844706;29;20026;-69
2022/04/20 02:51:51;;;;;;;22.30;16.30;;;231.20;2124.80;;;;;;4843386;29;20033;-68
2022/04/20 02:54:17;;;;;;;24.58;16.63;;;231.20;2048.00;;;;;;4844493;29;20033;-69
2022/04/20 02:56:43;;;;;;;21.23;16.30;;;231.10;2022.40;;;;;;4844427;29;20038;-69
2022/04/20 02:59:09;;;;;;;23.15;15.68;;;231.20;2048.00;;;;;;4844169;29;20030;-68
2022/04/20 03:01:34;;;;;;;23.17;15.95;;;231.20;2048.00;;;;;;4839559;29;20378;-69
2022/04/20 03:04:01;;;;;;;22.35;17.15;;;231.20;2022.40;;;;;;4844156;29;20037;-68
2022/04/20 03:06:27;;;;;;;19.38;16.15;;;231.20;2048.00;;;;;;4844418;29;20022;-68
2022/04/20 03:08:53;;;;;;;23.65;15.70;;;231.20;2073.60;;;;;;4844252;29;20026;-68
2022/04/20 03:11:19;;;;;;;19.88;15.82;;;231.20;2022.40;;;;;;4842748;29;20040;-69
2022/04/20 03:13:46;;;;;;;27.85;16.85;;;231.20;2048.00;;;;;;4843772;29;20063;-69
2022/04/20 03:16:12;;;;;;;22.38;16.67;;;231.20;2073.60;;;;;;4844134;29;20419;-68
2022/04/20 03:18:38;;;;;;;24.17;16.88;;;231.20;2073.60;;;;;;4840298;29;20038;-68
2022/04/20 03:21:03;;;;;;;22.08;17.13;;;231.20;2073.60;;;;;;4826175;29;20042;-69
2022/04/20 03:23:30;;;;;;;26.77;18.35;;;231.30;2073.60;;;;;;4825529;29;20423;-69
2022/04/20 03:25:56;;;;;;;23.55;18.08;;;231.20;2073.60;;;;;;4825675;29;20022;-69
2022/04/20 03:28:22;;;;;;;25.13;18.13;;;231.20;2048.00;;;;;;4825310;29;20052;-69
2022/04/20 03:30:48;;;;;;;22.95;18.08;;;231.30;2048.00;;;;;;4835711;29;20470;-69
2022/04/20 03:33:14;;;;;;;23.80;17.92;;;231.30;2048.00;;;;;;4807422;29;20525;-69
2022/04/20 03:35:44;;;;;;;22.85;18.30;;;231.20;2048.00;;;;;;4807276;29;20385;-69
2022/04/20 03:38:09;;;;;;;31.63;21.45;;;231.20;2048.00;;;;;;4807292;29;20126;-69
2022/04/20 03:40:36;;;;;;;34.20;25.55;;;231.10;2048.00;;;;;;4806131;29;20106;-69
2022/04/20 03:43:02;;;;;;;36.83;26.90;;;231.10;2073.60;;;;;;4820770;29;20046;-69
2022/04/20 03:45:28;;;;;;;35.90;25.83;;;231.10;2073.60;;;;;;4807171;29;20462;-69
2022/04/20 03:47:54;;;;;;;38.65;26.90;;;231.20;2073.60;;;;;;4807249;29;20035;-68
2022/04/20 03:50:20;;;;;;;34.22;24.83;;;231.20;2099.20;;;;;;4806926;29;20031;-69
2022/04/20 03:52:45;;;;;;;31.42;24.02;;;231.10;2099.20;;;;;;4806866;29;20031;-69
2022/04/20 03:55:11;;;;;;;33.63;25.90;;;231.20;2099.20;;;;;;4806820;29;20034;-70
2022/04/20 03:57:38;;;;;;;38.15;27.15;;;231.10;2099.20;;;;;;4820671;29;20049;-69
2022/04/20 04:00:05;;;;;;;37.25;28.92;;;231.20;2099.20;;;;;;4806790;29;20050;-69
2022/04/20 04:02:30;;;;;;;41.55;29.60;;;231.20;2099.20;;;;;;4806977;29;20035;-69
2022/04/20 04:04:56;;;;;;;36.45;28.88;;;231.20;2099.20;;;;;;4806871;29;20058;-69
2022/04/20 04:07:22;;;;;;;41.90;30.02;;;231.20;2099.20;;;;;;4806638;29;20386;-69
2022/04/20 04:09:48;;;;;;;53.95;33.88;;;231.10;2099.20;;;;;;4807020;29;20042;-69
2022/04/20 04:12:14;;;;;;;50.47;34.03;;;231.20;2099.20;;;;;;4806514;29;20034;-68
2022/04/20 04:14:41;;;;;;;48.75;33.13;;;231.20;2099.20;;;;;;4806710;29;20031;-69
2022/04/20 04:17:08;;;;;;;41.35;28.92;;;231.20;2099.20;;;;;;4820279;29;20051;-69
2022/04/20 04:19:35;;;;;;;44.53;31.05;;;231.20;2099.20;;;;;;4806793;29;20031;-69
2022/04/20 04:22:05;;;;;;;36.97;27.58;;;231.20;2099.20;;;;;;4806603;29;20035;-69
2022/04/20 04:24:37;;;;;;;36.20;26.02;;;231.20;2099.20;;;;;;4806564;29;20030;-67
2022/04/20 04:27:07;;;;;;;32.55;22.45;;;231.20;2099.20;;;;;;4806741;29;20058;-69
2022/04/20 04:29:34;;;;;;;29.55;20.73;;;231.20;2099.20;;;;;;4806497;29;20167;-68
2022/04/20 04:32:00;;;;;;;28.30;19.50;;;231.20;2099.20;;;;;;4822173;29;20410;-68
2022/04/20 04:34:27;;;;;;;35.00;23.63;;;231.20;2124.80;;;;;;4824927;29;20031;-69
2022/04/20 04:36:55;;;;;;;57.15;34.53;;;231.10;2124.80;;;;;;4824688;29;20038;-69
2022/04/20 04:39:22;;;;;;;48.78;30.00;;;231.10;2124.80;;;;;;4824734;29;20034;-69
2022/04/20 04:41:49;;;;;;;44.20;25.80;;;231.10;2124.80;;;;;;4822490;29;20074;-69
2022/04/20 04:44:17;;;;;;;31.48;23.05;;;231.20;2124.80;;;;;;4824836;29;20027;-69
2022/04/20 04:49:26;;;;;;;29.20;22.38;;;231.10;2124.80;;;;;;4825135;29;20541;-69
2022/04/20 04:51:53;;;;;;;26.35;21.63;;;231.20;2124.80;;;;;;4827334;29;20034;-66
2022/04/20 04:54:19;;;;;;;33.05;24.10;;;231.20;2124.80;;;;;;4828124;29;20040;-69
2022/04/20 04:56:44;;;;;;;34.75;24.75;;;231.20;2124.80;;;;;;4827890;29;20552;-69
2022/04/20 04:59:10;;;;;;;31.65;23.38;;;231.20;2124.80;;;;;;4827971;29;20041;-69
2022/04/20 05:01:36;;;;;;;39.78;26.85;;;231.20;2124.80;;;;;;4828213;29;20033;-69
2022/04/20 05:04:01;;;;;;;38.67;26.45;;;231.20;2150.40;;;;;;4827996;29;20058;-69
2022/04/20 05:06:27;;;;;;;37.78;26.55;;;231.20;2150.40;;;;;;4827793;29;20520;-69
2022/04/20 05:08:53;;;;;;;40.97;28.00;;;231.20;2124.80;;;;;;4827832;29;20060;-69
2022/04/20 05:11:18;;;;;;;48.00;30.67;;;231.30;2124.80;;;;;;4827895;29;20034;-69
2022/04/20 05:13:44;;;;;;;47.25;31.92;;;231.30;2124.80;;;;;;4827865;29;20037;-69
2022/04/20 05:16:11;;;;;;;47.25;32.45;;;231.30;2150.40;;;;;;4827700;29;20065;-66
2022/04/20 05:18:36;;;;;;;53.42;38.10;;;256.00;2150.40;;;;;;4827423;29;20038;-69
2022/04/20 05:21:02;;;;;;;53.85;38.70;;;231.30;2150.40;;;;;;4827688;29;20030;-69
2022/04/20 05:23:28;;;;;;;51.33;34.10;;;256.00;2150.40;;;;;;4827445;29;20034;-69
2022/04/20 05:25:53;;;;;;;45.03;32.83;;;256.00;2150.40;;;;;;4827563;29;20034;-69
2022/04/20 05:28:19;;;;;;;41.50;30.08;;;256.00;2150.40;;;;;;4841201;29;20497;-69
2022/04/20 05:30:45;;;;;;;39.88;29.92;;;256.00;2150.40;;;;;;4826696;29;20142;-68
2022/04/20 05:33:12;;;;;;;41.30;28.42;;;256.10;2150.40;;;;;;4827391;29;20027;-69
2022/04/20 05:35:38;;;;;;;43.63;29.58;;;256.00;2124.80;;;;;;4827313;29;20030;-69
2022/04/20 05:43:32;;;;;;;46.40;29.52;;;256.10;2124.80;;;;;;4827026;29;20458;-68
2022/04/20 05:45:58;;;;;;;43.88;29.13;;;256.10;2124.80;;;;;;4827027;29;20034;-67
2022/04/20 05:48:24;;;;;;;41.90;29.30;;;256.10;2150.40;;;;;;4827044;29;20031;-68
2022/04/20 05:50:50;;;;;;;43.00;29.52;;;256.20;2150.40;;;;;;4840594;29;20043;-69
2022/04/20 05:53:16;;;;;;;39.58;27.40;;;256.20;2150.40;;;;;;4826657;29;20034;-68
2022/04/20 05:55:42;;;;;;;37.35;26.33;;;256.20;2150.40;;;;;;4828039;29;20035;-68
2022/04/20 05:58:08;;;;;;;32.55;24.65;;;256.20;2176.00;;;;;;4845094;29;20381;-69
2022/04/20 06:00:33;;;;;;;34.75;25.02;;;256.20;2176.00;;;;;;4845372;29;20026;-66
2022/04/20 06:02:59;;;;;;;31.65;24.02;;;256.20;2201.60;;;;;;4851521;29;20464;-66
2022/04/20 06:05:25;;;;;;;31.90;24.98;;;256.20;2201.60;;;;;;4855047;29;20036;-65
2022/04/20 06:07:51;;;;;;;29.85;21.85;;;256.20;2201.60;;;;;;4845027;29;20112;-68
2022/04/20 06:10:16;;;;;;;33.63;22.92;;;256.30;2176.00;;;;;;4860793;29;20041;-69
2022/04/20 06:12:42;;;;;;;29.05;21.77;;;256.20;2176.00;;;;;;4862975;29;20460;-69
2022/04/20 06:15:08;;;;;;;27.52;23.42;;;256.20;2176.00;;;;;;4863564;29;20409;-67
2022/04/20 06:17:35;;;;;;;26.05;20.85;;;256.10;2176.00;;;;;;4847070;29;20397;-67
2022/04/20 06:20:01;;;;;;;31.25;22.02;;;256.20;2176.00;;;;;;4862254;29;20030;-70
2022/04/20 06:22:27;;;;;;;26.45;20.17;;;256.20;2176.00;;;;;;4845117;29;20042;-69
2022/04/20 06:24:53;;;;;;;26.42;20.42;;;256.20;2176.00;;;;;;4828367;29;20030;-66
2022/04/20 06:27:19;;;;;;;25.45;19.35;;;256.20;2176.00;;;;;;4844831;29;20029;-67
2022/04/20 06:29:45;;;;;;;22.88;19.30;;;256.20;2150.40;;;;;;4848257;29;20026;-69
2022/04/20 06:32:10;;;;;;;24.67;20.13;;;256.10;2150.40;;;;;;4844834;29;20046;-70
2022/04/20 06:34:36;;;;;;;24.00;19.10;;;256.10;2150.40;;;;;;4845626;29;20030;-67
2022/04/20 06:37:05;;;;;;;26.05;20.50;;;256.00;2176.00;;;;;;4863138;29;20404;-69
2022/04/20 06:39:31;;;;;;;23.75;20.70;;;256.00;2176.00;;;;;;4863222;29;20026;-69
2022/04/20 06:41:57;;;;;;;25.02;21.05;;;256.00;2176.00;;;;;;4863213;29;20499;-69
2022/04/20 06:44:23;;;;;;;27.80;23.80;;;256.00;2201.60;;;;;;4862914;29;20029;-70
2022/04/20 06:46:48;;;;;;;32.38;23.42;;;256.00;2201.60;;;;;;4863267;29;20037;-69
2022/04/20 06:49:15;;;;;;;28.52;22.63;;;231.30;2201.60;;;;;;4863110;29;20029;-69
2022/04/20 06:59:54;;;;;;;23.63;19.80;;;256.00;2227.20;;;;;;4862882;29;20380;-69
2022/04/20 07:02:21;;;;;;;26.85;21.73;;;256.00;2176.00;;;;;;4862754;29;20030;-69
2022/04/20 07:04:47;;;;;;;28.27;21.67;;;256.10;2201.60;;;;;;4862625;29;20492;-70
2022/04/20 07:07:13;;;;;;;28.85;23.65;;;256.10;2201.60;;;;;;4845469;29;20033;-69
2022/04/20 07:09:39;;;;;;;29.77;24.92;;;256.20;2227.20;;;;;;4862848;29;20034;-69
2022/04/20 07:12:05;;;;;;;30.92;23.95;;;256.20;2227.20;;;;;;4862491;29;20032;-70
2022/04/20 07:14:30;;;;;;;25.08;20.63;;;256.30;2227.20;;;;;;4862774;29;20045;-69
2022/04/20 07:16:56;;;;;;;25.35;19.42;;;256.30;2227.20;;;;;;4862411;29;20504;-70
2022/04/20 07:19:22;;;;;;;23.55;20.80;;;256.40;2201.60;;;;;;4861900;29;20021;-70
2022/04/20 07:21:48;;;;;;;24.55;19.27;;;256.50;2227.20;;;;;;4862193;29;20380;-69
2022/04/20 07:24:14;;;;;;;27.17;20.45;;;256.50;2201.60;;;;;;4862195;29;20059;-70
2022/04/20 07:26:40;;;;;;;27.45;20.52;;;256.40;2201.60;;;;;;4862227;29;20029;-70
2022/04/20 07:29:05;;;;;;;26.23;20.63;;;256.60;2176.00;;;;;;4862306;29;20033;-69
2022/04/20 07:31:31;;;;;;;29.45;21.20;;;256.70;2124.80;;;;;;4841756;29;20141;-70
2022/04/20 07:33:58;;;;;;;26.00;19.40;;;256.80;2124.80;;;;;;4843787;29;20377;-69
2022/04/20 07:36:23;;;;;;;28.13;21.35;;;256.90;2150.40;;;;;;4843583;29;20041;-69
2022/04/20 07:38:49;;;;;;;23.70;20.25;;;281.60;2150.40;;;;;;4843700;29;20104;-69
2022/04/20 07:41:15;;;;;;;23.10;18.98;;;281.70;2176.00;;;;;;4843665;29;20041;-70
2022/04/20 07:43:41;;;;;;;23.15;19.48;;;281.90;2124.80;;;;;;4843643;29;20030;-69
2022/04/20 07:46:07;;;;;;;22.90;18.30;;;282.00;2150.40;;;;;;4843560;29;20484;-69
2022/04/20 07:48:33;;;;;;;23.95;17.02;;;282.10;2073.60;;;;;;4843468;29;20030;-69
2022/04/20 07:51:00;;;;;;;22.25;18.00;;;282.20;2022.40;;;;;;4843555;29;20029;-69
2022/04/20 07:53:27;;;;;;;22.33;17.83;;;282.30;2048.00;;;;;;4843358;29;20109;-69
2022/04/20 07:55:52;;;;;;;19.25;17.20;;;282.30;2022.40;;;;;;4843445;29;20102;-69
2022/04/20 07:58:18;;;;;;;20.42;17.17;;;282.40;1996.80;;;;;;4843523;29;20472;-69
2022/04/20 08:00:45;;;;;;;23.63;15.50;;;282.50;2022.40;;;;;;4843320;29;20030;-69
2022/04/20 08:03:16;;;;;;;23.10;15.48;;;307.20;1996.80;;;;;;4843374;29;20030;-69
2022/04/20 08:05:42;;;;;;;23.60;15.75;;;307.30;1996.80;;;;;;4843213;29;20026;-70
2022/04/20 08:08:09;;;;;;;19.25;14.25;;;307.40;1996.80;;;;;;4843055;29;20090;-70
2022/04/20 08:10:36;;;;;;;19.65;15.48;;;307.40;1971.20;;;;;;4843334;29;20030;-69
2022/04/20 08:14:09;;;;;;;20.55;13.95;;;307.50;1971.20;;;;;;4843127;29;20530;-69
2022/04/20 08:15:48;;;;;;;13.10;10.52;;;307.60;1894.40;;;;;;4843097;29;20033;-69
2022/04/20 08:18:14;;;;;;;12.65;10.63;;;307.60;1766.40;;;;;;4843248;29;20042;-69
2022/04/20 08:20:40;;;;;;;12.88;10.60;;;307.70;1792.00;;;;;;4842518;29;20037;-70
2022/04/20 08:23:06;;;;;;;14.32;10.38;;;307.80;1817.60;;;;;;4843048;29;20030;-69
2022/04/20 08:25:32;;;;;;;14.63;11.57;;;307.90;1792.00;;;;;;4842603;29;20108;-69
2022/04/20 08:27:57;;;;;;;15.82;11.85;;;307.90;1766.40;;;;;;4843038;29;20419;-69
2022/04/20 08:30:23;;;;;;;13.05;10.80;;;308.10;1766.40;;;;;;4841589;29;20046;-69
2022/04/20 08:32:49;;;;;;;13.45;10.40;;;332.80;1817.60;;;;;;4843488;29;20400;-69
2022/04/20 08:35:14;;;;;;;12.80;9.55;;;332.90;1766.40;;;;;;4842905;29;20492;-69
2022/04/20 08:37:41;;;;;;;14.80;8.98;;;333.00;1740.80;;;;;;4842605;29;20042;-69
2022/04/20 08:40:07;;;;;;;12.48;8.98;;;333.20;1689.60;;;;;;4843066;29;20117;-69
2022/04/20 08:42:34;;;;;;;11.50;9.85;;;333.30;1638.40;;;;;;4842622;29;20415;-69
2022/04/20 08:45:04;;;;;;;13.50;9.77;;;333.40;1638.40;;;;;;4842836;29;20113;-69
2022/04/20 08:47:36;;;;;;;13.80;9.15;;;333.60;1715.20;;;;;;4842787;29;20034;-69
2022/04/20 08:50:03;;;;;;;12.93;9.93;;;358.40;1612.80;;;;;;4842895;29;20026;-69
2022/04/20 08:52:39;;;;;;;15.05;10.00;;;358.50;1638.40;;;;;;4842591;29;20488;-69
2022/04/20 08:55:11;;;;;;;10.48;9.38;;;358.60;1612.80;;;;;;4841579;29;20143;-69
2022/04/20 08:57:37;;;;;;;11.02;9.80;;;358.60;1612.80;;;;;;4841523;29;20580;-69
2022/04/20 09:00:10;;;;;;;17.70;10.60;;;358.60;1587.20;;;;;;4842202;29;20052;-69
2022/04/20 09:02:36;;;;;;;13.23;10.52;;;358.60;1587.20;;;;;;4842829;29;20038;-70
2022/04/20 09:05:03;;;;;;;13.10;10.63;;;358.60;1587.20;;;;;;4842700;29;20038;-69
2022/04/20 09:07:31;;;;;;;12.07;10.52;;;358.60;1612.80;;;;;;4842552;29;20030;-69
2022/04/20 09:09:57;;;;;;;16.08;10.98;;;358.60;1587.20;;;;;;4842780;29;20094;-69
2022/04/20 09:12:23;;;;;;;16.38;9.93;;;358.60;1587.20;;;;;;4842749;29;20026;-69
2022/04/20 09:14:50;;;;;;;19.20;13.52;;;358.40;1561.60;;;;;;4842353;29;20026;-69
2022/04/20 09:17:21;;;;;;;19.55;14.32;;;333.60;1561.60;;;;;;4842413;29;20087;-69
2022/04/20 09:19:52;;;;;;;19.63;13.13;;;333.50;1587.20;;;;;;4842753;29;20029;-70
2022/04/20 09:22:20;;;;;;;17.58;14.60;;;333.40;1587.20;;;;;;4842560;29;20030;-70
2022/04/20 09:24:59;;;;;;;17.88;15.52;;;333.30;1612.80;;;;;;4842614;29;20026;-70
2022/04/20 09:27:28;;;;;;;23.73;13.70;;;333.30;1612.80;;;;;;4842536;29;20643;-70
2022/04/20 09:30:04;;;;;;;14.63;12.15;;;333.10;1612.80;;;;;;4842289;29;20034;-69
2022/04/20 09:32:37;;;;;;;12.70;10.52;;;333.00;1612.80;;;;;;4860880;29;20042;-69
2022/04/20 09:35:06;;;;;;;15.60;10.48;;;333.00;1638.40;;;;;;4861031;29;20431;-69
2022/04/20 09:37:33;;;;;;;30.23;19.75;;;333.00;1638.40;;;;;;4861322;29;20125;-69
2022/04/20 09:40:00;;;;;;;16.38;11.90;;;333.00;1638.40;;;;;;4847482;29;20477;-69
2022/04/20 09:42:26;;;;;;;12.40;11.10;;;332.90;1638.40;;;;;;4864056;29;20038;-69
2022/04/20 09:45:00;;;;;;;13.63;10.77;;;332.80;1612.80;;;;;;4864211;29;20033;-69
2022/04/20 09:50:21;;;;;;;12.70;10.55;;;308.10;1612.80;;;;;;4864115;29;20537;-66
2022/04/20 09:52:48;;;;;;;11.98;10.15;;;332.80;1638.40;;;;;;4863730;29;20022;-69
2022/04/20 09:55:18;;;;;;;17.25;11.60;;;333.00;1664.00;;;;;;4858565;29;20117;-66
2022/04/20 09:57:44;;;;;;;11.30;9.98;;;333.30;1664.00;;;;;;4854024;29;20042;-67
2022/04/20 10:00:15;;;;;;;12.35;10.50;;;333.50;1638.40;;;;;;4852401;29;20045;-67
2022/04/20 10:02:48;;;;;;;21.50;13.80;;;333.70;1612.80;;;;;;4850835;29;20124;-69
2022/04/20 10:05:18;;;;;;;17.35;11.73;;;358.40;1536.00;;;;;;4834761;29;20113;-67
2022/04/20 10:07:44;;;;;;;13.35;10.10;;;358.60;1484.80;;;;;;4853069;29;20032;-69
2022/04/20 10:10:10;;;;;;;13.20;9.02;;;358.60;1484.80;;;;;;4853497;29;20026;-69
2022/04/20 10:12:41;;;;;;;13.93;10.65;;;358.60;1459.20;;;;;;4834873;29;20029;-69
2022/04/20 10:17:57;;;;;;;32.40;21.70;;;358.80;1459.20;;;;;;4853811;29;20080;-68
2022/04/20 10:20:27;;;;;;;17.77;13.02;;;358.70;1484.80;;;;;;4850550;29;20057;-69
2022/04/20 10:22:54;;;;;;;21.20;14.98;;;358.60;1484.80;;;;;;4836300;29;20109;-66
2022/04/20 10:25:21;;;;;;;15.65;12.02;;;358.80;1459.20;;;;;;4852617;29;20025;-69
2022/04/20 10:27:58;;;;;;;13.10;9.88;;;358.90;1459.20;;;;;;4853722;29;20056;-69
2022/04/20 10:30:36;;;;;;;13.80;10.63;;;359.00;1433.60;;;;;;4850693;29;20489;-68
2022/04/20 10:33:19;;;;;;;14.63;11.38;;;359.10;1433.60;;;;;;4850502;29;20400;-69
2022/04/20 10:36:18;;;;;;;16.38;11.60;;;359.10;1408.00;;;;;;4850752;29;20109;-70
2022/04/20 10:38:46;;;;;;;23.95;13.02;;;359.10;1408.00;;;;;;4761362;30;20131;-69
2022/04/20 10:41:13;;;;;;;21.40;10.70;;;359.10;1433.60;;;;;;4761214;30;20044;-69
2022/04/20 10:43:41;;;;;;;15.68;10.43;;;359.10;1408.00;;;;;;4745905;30;20046;-69
2022/04/20 10:46:21;;;;;;;13.30;10.50;;;359.10;1408.00;;;;;;4758834;30;20035;-69
2022/04/20 10:48:58;;;;;;;13.45;10.27;;;359.10;1408.00;;;;;;4757005;30;20043;-70
2022/04/20 10:51:36;;;;;;;11.38;9.98;;;359.10;1408.00;;;;;;4756574;30;20035;-69
2022/04/20 10:54:29;;;;;;;11.18;9.85;;;359.10;1408.00;;;;;;4758668;30;20589;-70
2022/04/20 10:57:11;;;;;;;10.60;8.77;;;359.10;1382.40;;;;;;4759225;30;20070;-68
2022/04/20 10:59:39;;;;;;;11.40;8.85;;;359.20;1382.40;;;;;;4759565;30;20028;-70
2022/04/20 11:02:11;;;;;;;13.13;9.25;;;359.30;1382.40;;;;;;4756742;30;20037;-69
2022/04/20 11:04:48;;;;;;;11.05;9.82;;;384.00;1331.20;;;;;;4759164;30;20064;-69
2022/04/20 11:07:18;;;;;;;11.15;8.57;;;359.10;1356.80;;;;;;4758631;30;20099;-69
2022/04/20 11:09:52;;;;;;;13.13;8.93;;;359.10;1382.40;;;;;;4756021;30;20120;-69
2022/04/20 11:18:41;;;;;;;19.30;12.52;;;384.00;1331.20;;;;;;4851762;29;20068;-69
2022/04/20 11:21:07;;;;;;;22.77;16.73;;;358.80;1408.00;;;;;;4849204;29;20033;-68
2022/04/20 11:23:48;;;;;;;22.60;17.48;;;358.90;1433.60;;;;;;4851494;29;20036;-69
2022/04/20 11:26:37;;;;;;;19.48;13.52;;;358.40;1510.40;;;;;;4850786;29;20037;-69
2022/04/20 11:29:17;;;;;;;19.73;15.63;;;333.40;1612.80;;;;;;4855843;29;20053;-68
2022/04/20 11:31:46;;;;;;;22.23;14.75;;;333.00;1664.00;;;;;;4861917;29;20060;-69
2022/04/20 11:34:14;;;;;;;17.63;13.88;;;332.90;1715.20;;;;;;4845135;29;20062;-67
2022/04/20 11:36:43;;;;;;;16.73;12.80;;;308.00;1664.00;;;;;;4861978;29;20514;-68
2022/04/20 11:39:13;;;;;;;18.25;14.25;;;307.60;1715.20;;;;;;4862189;29;20485;-68
2022/04/20 11:41:51;;;;;;;19.80;15.90;;;307.30;1766.40;;;;;;4856141;29;20029;-69
2022/04/20 11:44:25;;;;;;;21.88;14.73;;;282.50;1817.60;;;;;;4861816;29;20520;-71
2022/04/20 11:46:53;;;;;;;16.92;13.10;;;282.30;1843.20;;;;;;4861954;29;20033;-71
2022/04/20 11:49:20;;;;;;;26.75;17.58;;;282.00;1843.20;;;;;;4861894;29;20036;-71
2022/04/20 11:51:57;;;;;;;39.13;18.58;;;281.90;1868.80;;;;;;4861723;29;20029;-71
2022/04/20 11:54:24;;;;;;;30.10;16.23;;;282.00;1971.20;;;;;;4861938;29;20396;-71
2022/04/20 11:56:51;;;;;;;47.45;22.42;;;282.10;1894.40;;;;;;4861395;29;20116;-70
2022/04/20 11:59:18;;;;;;;26.45;15.70;;;282.20;1868.80;;;;;;4861965;29;20046;-70
2022/04/20 12:01:44;;;;;;;17.55;12.70;;;282.30;1894.40;;;;;;4844619;29;20422;-71
2022/04/20 12:04:12;;;;;;;34.55;13.82;;;282.40;1817.60;;;;;;4862963;29;20520;-70
2022/04/20 12:06:53;;;;;;;18.83;12.38;;;307.20;1920.00;;;;;;4844702;29;20042;-70
2022/04/20 12:09:29;;;;;;;21.27;13.55;;;307.20;1868.80;;;;;;4861768;29;20044;-70
2022/04/20 12:12:01;;;;;;;16.63;11.13;;;307.20;1894.40;;;;;;4855538;29;20030;-71
2022/04/20 12:14:32;;;;;;;19.92;13.23;;;307.40;1843.20;;;;;;4861459;29;20037;-71
2022/04/20 12:17:05;;;;;;;13.98;11.68;;;307.50;1817.60;;;;;;4861390;29;20123;-71
2022/04/20 12:19:32;;;;;;;13.23;11.55;;;307.60;1766.40;;;;;;4861504;29;20030;-70
2022/04/20 12:22:08;;;;;;;11.32;8.18;;;307.80;1740.80;;;;;;4860944;29;20507;-71
2022/04/20 12:24:35;;;;;;;10.27;8.45;;;307.80;1689.60;;;;;;4861138;29;20026;-71
2022/04/20 12:27:00;;;;;;;15.63;10.02;;;308.00;1689.60;;;;;;4861383;29;20064;-70
2022/04/20 12:29:32;;;;;;;13.77;10.00;;;332.80;1715.20;;;;;;4861168;29;20064;-70